Time;durP1;ratioP1;P1;durP2;ratioP2;P2;SDS_P1;SDS_P2;PMS_P1;PMS_P2;Temp;Humidity;BMP_temperature;BMP_pressure;BME280_temperature;BME280_humidity;BME280_pressure;Samples;Min_cycle;Max_cycle;Signal;HPM_P1;HPM_P2
2022/10/26 00:00:47;;;;;;;6.35;3.63;;;12.80;84.90;;;;;;4994091;28;20041;-67
2022/10/26 00:03:14;;;;;;;6.80;3.72;;;12.80;84.90;;;;;;4993974;28;20105;-69
2022/10/26 00:05:39;;;;;;;5.30;3.85;;;12.80;84.90;;;;;;4994261;28;20057;-68
2022/10/26 00:08:06;;;;;;;4.78;3.60;;;12.90;84.90;;;;;;4993962;28;20456;-68
2022/10/26 00:10:36;;;;;;;5.70;3.70;;;12.90;84.80;;;;;;4994046;28;20065;-68
2022/10/26 00:13:04;;;;;;;5.13;3.47;;;12.90;84.80;;;;;;4994015;28;20046;-67
2022/10/26 00:15:30;;;;;;;5.53;4.03;;;12.90;84.80;;;;;;4992363;28;20026;-68
2022/10/26 00:17:55;;;;;;;8.65;4.70;;;12.90;84.90;;;;;;4993821;28;20026;-68
2022/10/26 00:20:21;;;;;;;5.95;4.30;;;12.80;85.00;;;;;;4993435;28;20711;-68
2022/10/26 00:22:46;;;;;;;6.75;4.18;;;12.80;85.30;;;;;;4993317;28;20046;-69
2022/10/26 00:25:12;;;;;;;6.97;3.80;;;12.80;85.30;;;;;;4993528;28;20026;-68
2022/10/26 00:27:37;;;;;;;7.70;4.20;;;12.80;85.30;;;;;;4992486;28;20026;-68
2022/10/26 00:30:04;;;;;;;4.82;3.42;;;12.90;85.20;;;;;;4993448;28;20031;-68
2022/10/26 00:32:31;;;;;;;6.57;4.25;;;12.90;85.10;;;;;;4993720;28;20033;-68
2022/10/26 00:34:57;;;;;;;6.00;4.18;;;12.90;85.00;;;;;;4993827;28;20019;-68
2022/10/26 00:37:22;;;;;;;5.18;3.95;;;12.90;85.00;;;;;;4993868;28;20388;-68
2022/10/26 00:39:48;;;;;;;4.93;3.83;;;12.80;85.00;;;;;;4994232;28;20089;-67
2022/10/26 00:42:18;;;;;;;5.53;3.90;;;12.80;85.00;;;;;;4993897;28;20486;-68
2022/10/26 00:44:46;;;;;;;6.32;3.72;;;12.90;85.00;;;;;;4994231;28;20097;-68
2022/10/26 00:47:20;;;;;;;4.85;3.50;;;12.90;85.00;;;;;;4995212;28;20037;-68
2022/10/26 00:49:47;;;;;;;7.15;4.13;;;12.90;85.00;;;;;;4994750;28;20026;-68
2022/10/26 00:52:16;;;;;;;6.55;3.42;;;12.90;85.00;;;;;;4993044;28;20495;-68
2022/10/26 00:54:43;;;;;;;5.03;3.50;;;12.90;85.00;;;;;;5000039;28;20058;-69
2022/10/26 00:57:10;;;;;;;6.57;4.20;;;12.90;85.10;;;;;;4992897;28;20049;-67
2022/10/26 00:59:36;;;;;;;7.20;3.85;;;12.90;85.00;;;;;;4993016;28;20049;-68
2022/10/26 01:02:02;;;;;;;4.72;3.30;;;12.80;85.00;;;;;;4992982;28;20030;-67
2022/10/26 01:04:27;;;;;;;7.28;4.28;;;12.80;85.20;;;;;;4993674;28;20038;-68
2022/10/26 01:06:53;;;;;;;7.03;4.10;;;12.80;85.50;;;;;;4993456;28;20023;-68
2022/10/26 01:09:19;;;;;;;5.45;4.30;;;12.70;85.60;;;;;;4993749;28;20034;-68
2022/10/26 01:11:45;;;;;;;6.10;3.97;;;12.70;85.80;;;;;;4993742;28;20022;-67
2022/10/26 01:14:14;;;;;;;7.50;4.28;;;12.70;86.00;;;;;;4993727;28;20525;-68
2022/10/26 01:17:13;;;;;;;5.30;3.67;;;12.70;86.10;;;;;;4993755;28;20081;-68
2022/10/26 01:20:05;;;;;;;5.82;3.55;;;12.80;86.00;;;;;;4993863;28;20057;-68
2022/10/26 01:22:36;;;;;;;8.52;4.38;;;12.80;86.00;;;;;;4992468;28;20034;-68
2022/10/26 01:25:07;;;;;;;5.65;3.53;;;12.80;86.20;;;;;;4991691;28;20503;-67
2022/10/26 01:27:39;;;;;;;8.57;4.50;;;12.80;86.10;;;;;;4991920;28;20026;-67
2022/10/26 01:30:34;;;;;;;7.70;4.72;;;12.80;86.20;;;;;;4992488;28;20265;-68
2022/10/26 01:33:13;;;;;;;7.03;4.15;;;12.70;86.50;;;;;;4992596;28;20049;-67
2022/10/26 01:36:05;;;;;;;7.70;4.07;;;12.80;86.50;;;;;;4990588;28;20023;-69
2022/10/26 01:38:54;;;;;;;7.47;5.20;;;12.80;86.50;;;;;;4992397;28;20393;-68
2022/10/26 01:41:46;;;;;;;8.00;4.50;;;12.70;86.60;;;;;;4992953;28;20685;-69
2022/10/26 01:44:30;;;;;;;5.95;3.78;;;12.70;86.60;;;;;;4993979;28;20077;-69
2022/10/26 01:46:58;;;;;;;8.38;4.28;;;12.80;86.60;;;;;;4993375;28;20043;-69
2022/10/26 01:49:27;;;;;;;6.90;3.95;;;12.80;86.70;;;;;;4993065;28;20046;-68
2022/10/26 01:51:53;;;;;;;8.93;4.35;;;12.70;86.60;;;;;;4992793;28;20081;-68
2022/10/26 01:54:19;;;;;;;8.32;3.70;;;12.80;87.40;;;;;;4992581;28;20027;-69
2022/10/26 01:56:49;;;;;;;7.70;4.93;;;12.80;86.70;;;;;;4992999;28;20057;-68
2022/10/26 01:59:29;;;;;;;9.10;4.57;;;12.70;87.00;;;;;;4992538;28;20101;-68
2022/10/26 02:02:16;;;;;;;7.53;4.15;;;12.70;87.10;;;;;;4992337;28;20045;-68
2022/10/26 02:05:03;;;;;;;7.45;4.20;;;12.70;87.20;;;;;;4992065;28;20069;-68
2022/10/26 02:07:52;;;;;;;7.13;3.90;;;12.70;87.10;;;;;;4991833;28;20069;-68
2022/10/26 02:10:32;;;;;;;6.85;4.32;;;12.70;87.00;;;;;;4990196;28;20054;-69
2022/10/26 02:13:13;;;;;;;9.25;4.32;;;12.70;87.10;;;;;;4991949;28;20632;-68
2022/10/26 02:16:17;;;;;;;7.00;4.10;;;12.70;87.00;;;;;;4991618;28;20077;-68
2022/10/26 02:18:53;;;;;;;7.15;4.20;;;12.60;87.10;;;;;;4991540;28;20030;-68
2022/10/26 02:21:24;;;;;;;8.50;4.72;;;12.60;87.40;;;;;;4991360;28;20053;-68
2022/10/26 02:23:54;;;;;;;6.78;4.15;;;12.50;87.40;;;;;;4990354;28;20098;-68
2022/10/26 02:26:23;;;;;;;8.63;4.80;;;12.50;87.50;;;;;;4991409;28;20162;-68
2022/10/26 02:28:52;;;;;;;8.38;4.85;;;12.50;87.60;;;;;;4991543;28;20031;-67
2022/10/26 02:31:19;;;;;;;7.38;4.95;;;12.40;87.80;;;;;;4991280;28;20034;-68
2022/10/26 02:33:49;;;;;;;6.82;3.88;;;12.40;88.00;;;;;;4991280;28;20034;-68
2022/10/26 02:36:21;;;;;;;6.97;4.50;;;12.50;88.00;;;;;;4991528;28;20549;-68
2022/10/26 02:38:47;;;;;;;6.97;4.10;;;12.50;87.90;;;;;;4991299;28;20065;-68
2022/10/26 02:41:14;;;;;;;9.98;5.00;;;12.50;88.00;;;;;;4991440;28;20050;-67
2022/10/26 02:44:13;;;;;;;6.65;4.80;;;12.50;88.00;;;;;;4991331;28;20018;-69
2022/10/26 02:46:39;;;;;;;6.30;4.05;;;12.50;88.10;;;;;;4991529;28;20026;-68
2022/10/26 02:49:05;;;;;;;6.57;4.22;;;12.50;88.10;;;;;;4991075;28;20029;-68
2022/10/26 02:51:44;;;;;;;8.95;5.05;;;12.50;88.10;;;;;;4991392;28;20448;-68
2022/10/26 02:54:23;;;;;;;8.27;5.10;;;12.50;88.20;;;;;;4989970;28;20031;-68
2022/10/26 02:57:00;;;;;;;7.70;4.97;;;12.50;88.40;;;;;;4991681;28;20018;-67
2022/10/26 02:59:34;;;;;;;9.57;5.57;;;12.60;88.50;;;;;;4990705;28;20023;-67
2022/10/26 03:02:00;;;;;;;9.13;5.47;;;12.60;88.60;;;;;;4990424;28;20544;-68
2022/10/26 03:04:30;;;;;;;10.40;5.40;;;12.60;88.70;;;;;;4991120;28;20027;-68
2022/10/26 03:06:56;;;;;;;6.10;4.10;;;12.70;88.70;;;;;;4990363;28;20026;-67
2022/10/26 03:09:22;;;;;;;7.38;3.63;;;12.70;88.50;;;;;;4989979;28;20019;-68
2022/10/26 03:11:47;;;;;;;7.93;4.28;;;12.80;88.20;;;;;;4991263;28;20672;-69
2022/10/26 03:14:13;;;;;;;8.85;5.30;;;12.80;88.00;;;;;;4990966;28;20492;-69
2022/10/26 03:16:39;;;;;;;6.90;4.63;;;12.80;88.00;;;;;;4991004;28;20026;-67
2022/10/26 03:19:04;;;;;;;6.95;4.28;;;12.80;88.10;;;;;;4991069;28;20022;-68
2022/10/26 03:21:30;;;;;;;9.32;4.88;;;12.90;88.00;;;;;;4991318;28;20035;-68
2022/10/26 03:23:55;;;;;;;6.07;4.13;;;12.80;87.90;;;;;;4992006;28;20107;-68
2022/10/26 03:26:21;;;;;;;7.20;3.60;;;12.90;87.90;;;;;;4992240;28;20027;-68
2022/10/26 03:28:46;;;;;;;9.05;4.25;;;12.80;87.80;;;;;;4991306;28;20031;-68
2022/10/26 03:31:12;;;;;;;6.03;4.20;;;12.90;87.80;;;;;;4989536;28;20027;-68
2022/10/26 03:33:38;;;;;;;7.03;4.63;;;12.90;87.60;;;;;;4990981;28;20492;-69
2022/10/26 03:36:03;;;;;;;7.30;4.28;;;12.90;87.60;;;;;;4990779;28;20073;-67
2022/10/26 03:38:29;;;;;;;6.25;4.15;;;12.90;87.60;;;;;;4990762;28;20174;-67
2022/10/26 03:40:54;;;;;;;10.10;5.22;;;12.90;87.60;;;;;;4990978;28;20509;-69
2022/10/26 03:43:20;;;;;;;7.13;4.38;;;12.90;87.70;;;;;;4990895;28;20031;-68
2022/10/26 03:45:46;;;;;;;7.75;4.78;;;12.90;87.90;;;;;;4990653;28;20026;-68
2022/10/26 03:48:11;;;;;;;7.28;4.57;;;12.90;88.00;;;;;;4990607;28;20026;-67
2022/10/26 03:50:37;;;;;;;7.95;4.28;;;12.90;88.00;;;;;;4989779;28;20038;-68
2022/10/26 03:53:03;;;;;;;6.32;3.97;;;12.90;87.90;;;;;;4989707;28;20026;-67
2022/10/26 03:55:29;;;;;;;7.75;3.90;;;13.00;87.70;;;;;;4991048;28;20018;-68
2022/10/26 03:57:54;;;;;;;7.68;4.13;;;13.00;87.80;;;;;;4992067;28;20403;-68
2022/10/26 04:00:20;;;;;;;6.25;3.88;;;12.90;87.70;;;;;;4994625;28;20086;-67
2022/10/26 04:02:56;;;;;;;6.45;3.67;;;13.00;87.80;;;;;;4994340;28;20467;-68
2022/10/26 04:05:23;;;;;;;8.20;4.53;;;13.00;87.70;;;;;;4994549;28;20026;-68
2022/10/26 04:07:57;;;;;;;7.90;4.45;;;13.00;87.60;;;;;;4994511;28;20026;-68
2022/10/26 04:10:24;;;;;;;7.00;4.50;;;13.00;87.70;;;;;;4994516;28;20597;-69
2022/10/26 04:12:50;;;;;;;5.63;3.90;;;13.00;87.60;;;;;;4992862;28;20485;-68
2022/10/26 04:15:16;;;;;;;7.90;4.38;;;13.00;87.60;;;;;;4994522;28;20030;-67
2022/10/26 04:17:41;;;;;;;5.93;3.80;;;13.00;87.60;;;;;;4994142;28;20041;-68
2022/10/26 04:20:08;;;;;;;7.47;4.20;;;13.00;87.50;;;;;;4994753;28;20485;-68
2022/10/26 04:22:35;;;;;;;5.78;4.18;;;12.90;87.60;;;;;;4994567;28;20038;-68
2022/10/26 04:25:01;;;;;;;6.40;3.90;;;12.90;87.70;;;;;;4994433;28;20437;-67
2022/10/26 04:27:26;;;;;;;8.23;4.65;;;12.90;87.70;;;;;;4994797;28;20388;-68
2022/10/26 04:29:52;;;;;;;7.95;4.85;;;12.90;87.70;;;;;;4995025;28;20022;-67
2022/10/26 04:32:17;;;;;;;8.93;4.88;;;12.90;87.90;;;;;;4994357;28;20026;-69
2022/10/26 04:34:43;;;;;;;5.10;3.92;;;12.80;87.90;;;;;;4994819;28;20077;-69
2022/10/26 04:37:08;;;;;;;6.28;3.65;;;12.90;87.90;;;;;;4995634;28;20101;-68
2022/10/26 04:39:34;;;;;;;6.95;4.38;;;12.90;87.80;;;;;;4995022;28;20069;-69
2022/10/26 04:42:00;;;;;;;7.10;4.35;;;12.90;87.80;;;;;;4996336;28;20030;-68
2022/10/26 04:44:25;;;;;;;8.30;4.82;;;12.90;87.90;;;;;;4994132;28;20030;-68
2022/10/26 04:46:51;;;;;;;8.55;4.82;;;12.80;88.00;;;;;;4994716;28;20050;-68
2022/10/26 04:49:16;;;;;;;9.00;5.07;;;12.80;88.00;;;;;;4994238;28;20054;-68
2022/10/26 04:51:42;;;;;;;6.65;3.97;;;12.80;88.10;;;;;;4993327;28;20029;-69
2022/10/26 04:54:07;;;;;;;7.07;3.47;;;12.80;88.20;;;;;;4993491;28;20385;-67
2022/10/26 04:56:33;;;;;;;6.53;4.05;;;12.80;88.10;;;;;;4993315;28;20132;-67
2022/10/26 04:58:58;;;;;;;8.27;4.90;;;12.80;88.00;;;;;;4991858;28;20015;-68
2022/10/26 05:01:24;;;;;;;6.07;4.10;;;12.80;88.10;;;;;;4992959;28;20053;-68
2022/10/26 05:03:51;;;;;;;5.90;4.18;;;12.80;88.90;;;;;;4992960;28;20034;-67
2022/10/26 05:06:18;;;;;;;7.57;4.13;;;12.80;88.30;;;;;;4991830;28;20181;-68
2022/10/26 05:08:43;;;;;;;6.97;3.92;;;12.80;88.30;;;;;;4991044;28;20037;-68
2022/10/26 05:11:09;;;;;;;8.07;4.80;;;12.80;88.50;;;;;;4992575;28;20030;-68
2022/10/26 05:13:35;;;;;;;7.82;4.45;;;12.70;88.50;;;;;;4991744;28;20022;-68
2022/10/26 05:16:00;;;;;;;5.53;4.07;;;12.80;88.50;;;;;;4991443;28;20507;-68
2022/10/26 05:18:26;;;;;;;7.75;4.82;;;12.80;88.60;;;;;;4993164;28;20150;-68
2022/10/26 05:20:52;;;;;;;6.75;4.55;;;12.80;88.60;;;;;;4993203;28;20392;-69
2022/10/26 05:23:18;;;;;;;8.52;4.30;;;12.80;88.70;;;;;;4993058;28;20097;-68
2022/10/26 05:25:45;;;;;;;7.75;4.18;;;12.80;88.70;;;;;;4992841;28;20487;-69
2022/10/26 05:28:14;;;;;;;6.78;3.83;;;12.80;88.70;;;;;;4992771;28;20034;-68
2022/10/26 05:30:41;;;;;;;6.68;4.47;;;12.90;88.80;;;;;;4992912;28;20026;-69
2022/10/26 05:33:09;;;;;;;6.57;4.00;;;12.90;88.70;;;;;;4993127;28;20033;-68
2022/10/26 05:35:35;;;;;;;8.32;3.90;;;12.90;88.60;;;;;;4993007;28;20023;-69
2022/10/26 05:38:13;;;;;;;6.93;4.25;;;13.00;88.60;;;;;;4992641;28;20030;-68
2022/10/26 05:40:46;;;;;;;6.95;4.15;;;12.90;88.50;;;;;;4992402;28;20030;-69
2022/10/26 05:43:12;;;;;;;5.55;3.72;;;13.00;88.60;;;;;;4991211;28;20416;-68
2022/10/26 05:45:38;;;;;;;7.68;4.45;;;13.00;88.40;;;;;;4992173;28;20109;-67
2022/10/26 05:48:04;;;;;;;8.18;3.92;;;13.00;88.40;;;;;;4990787;28;20041;-69
2022/10/26 05:50:29;;;;;;;6.93;4.22;;;13.00;88.20;;;;;;4992215;28;20034;-67
2022/10/26 05:52:55;;;;;;;6.85;4.32;;;13.00;88.20;;;;;;4991874;28;20436;-68
2022/10/26 05:55:21;;;;;;;5.47;3.53;;;13.00;88.20;;;;;;4990651;28;20029;-67
2022/10/26 05:57:47;;;;;;;6.05;3.72;;;13.10;88.30;;;;;;4991708;28;20084;-68
2022/10/26 06:00:24;;;;;;;7.50;4.00;;;13.10;88.30;;;;;;4991773;28;20026;-67
2022/10/26 06:03:04;;;;;;;5.07;3.30;;;13.10;88.20;;;;;;4991891;28;20026;-68
2022/10/26 06:05:36;;;;;;;5.35;3.50;;;13.10;88.10;;;;;;4991580;28;20463;-67
2022/10/26 06:08:02;;;;;;;5.70;3.50;;;13.10;88.00;;;;;;4991742;28;20026;-68
2022/10/26 06:10:28;;;;;;;4.97;3.53;;;13.20;87.90;;;;;;4991610;28;20038;-67
2022/10/26 06:12:53;;;;;;;4.90;3.58;;;13.20;87.80;;;;;;4991765;28;20030;-68
2022/10/26 06:15:20;;;;;;;5.82;3.58;;;13.20;87.70;;;;;;4991585;28;20033;-68
2022/10/26 06:18:06;;;;;;;7.28;3.80;;;13.20;87.70;;;;;;4991384;28;20034;-68
2022/10/26 06:21:01;;;;;;;5.63;3.20;;;13.30;87.70;;;;;;4991171;28;20500;-68
2022/10/26 06:23:36;;;;;;;5.72;3.00;;;13.30;87.60;;;;;;4994145;28;20069;-67
2022/10/26 06:26:25;;;;;;;5.30;3.22;;;13.30;87.60;;;;;;4991390;28;20124;-68
2022/10/26 06:28:58;;;;;;;6.53;3.10;;;13.30;87.70;;;;;;4991391;28;20065;-68
2022/10/26 06:31:24;;;;;;;4.20;2.85;;;13.30;87.60;;;;;;4991166;28;20432;-67
2022/10/26 06:33:54;;;;;;;5.70;3.30;;;13.30;87.50;;;;;;4991494;28;20102;-67
2022/10/26 06:36:25;;;;;;;5.50;3.20;;;13.30;87.50;;;;;;4991227;28;20062;-67
2022/10/26 06:39:01;;;;;;;6.18;3.50;;;13.30;87.50;;;;;;4991174;28;20448;-68
2022/10/26 06:41:29;;;;;;;5.00;3.15;;;13.30;87.50;;;;;;4991295;28;20054;-68
2022/10/26 06:43:55;;;;;;;4.63;3.08;;;13.30;87.50;;;;;;4991311;28;20038;-68
2022/10/26 06:46:49;;;;;;;5.35;2.92;;;13.30;87.40;;;;;;4991331;28;20035;-68
2022/10/26 06:49:29;;;;;;;3.92;2.63;;;13.30;87.40;;;;;;4991249;28;20030;-69
2022/10/26 06:52:01;;;;;;;5.63;3.30;;;13.30;87.30;;;;;;4990977;28;20481;-68
2022/10/26 06:54:48;;;;;;;5.07;3.15;;;13.40;87.40;;;;;;4991302;28;20030;-68
2022/10/26 06:57:16;;;;;;;5.93;3.00;;;13.40;87.40;;;;;;4990891;28;20023;-68
2022/10/26 06:59:49;;;;;;;5.80;3.30;;;13.40;87.30;;;;;;4989595;28;20022;-68
2022/10/26 07:02:15;;;;;;;3.30;2.70;;;13.40;88.00;;;;;;4989974;28;20073;-68
2022/10/26 07:04:43;;;;;;;4.45;2.60;;;13.40;87.20;;;;;;4991528;28;20034;-68
2022/10/26 07:07:20;;;;;;;6.38;3.25;;;13.50;87.20;;;;;;4991710;28;20065;-67
2022/10/26 07:09:46;;;;;;;6.20;2.95;;;13.50;87.10;;;;;;4991434;28;20539;-69
2022/10/26 07:12:12;;;;;;;5.55;3.17;;;13.50;87.00;;;;;;4991433;28;20030;-68
2022/10/26 07:14:37;;;;;;;6.72;3.53;;;13.50;87.00;;;;;;4990664;28;20117;-68
2022/10/26 07:17:04;;;;;;;4.82;3.03;;;13.50;87.00;;;;;;4989506;28;20063;-68
2022/10/26 07:19:30;;;;;;;5.88;3.45;;;13.60;87.10;;;;;;4990893;28;20023;-68
2022/10/26 07:21:58;;;;;;;5.15;3.22;;;13.60;87.10;;;;;;4992177;28;20030;-68
2022/10/26 07:24:24;;;;;;;6.93;3.75;;;13.60;87.10;;;;;;4990919;28;20046;-68
2022/10/26 07:26:50;;;;;;;4.38;3.15;;;13.70;87.20;;;;;;4990507;28;20575;-67
2022/10/26 07:29:17;;;;;;;4.85;3.38;;;13.80;87.10;;;;;;4990625;28;20245;-68
2022/10/26 07:31:42;;;;;;;4.53;3.20;;;13.90;86.90;;;;;;4990760;28;20156;-68
2022/10/26 07:34:08;;;;;;;8.85;4.10;;;14.00;86.60;;;;;;4994191;28;20302;-69
2022/10/26 07:36:35;;;;;;;5.07;2.80;;;14.10;86.50;;;;;;4994770;28;20026;-68
2022/10/26 07:39:02;;;;;;;6.22;2.95;;;14.20;86.30;;;;;;4994716;28;20018;-67
2022/10/26 07:41:27;;;;;;;4.00;2.70;;;14.30;86.00;;;;;;4994481;28;20106;-68
2022/10/26 07:43:53;;;;;;;3.97;2.60;;;14.40;86.40;;;;;;4994751;28;20117;-68
2022/10/26 07:46:18;;;;;;;5.72;2.95;;;14.40;85.60;;;;;;4994641;28;20031;-69
2022/10/26 07:48:44;;;;;;;5.00;2.90;;;14.50;85.50;;;;;;4993754;28;20089;-69
2022/10/26 07:51:09;;;;;;;4.30;2.50;;;14.50;85.40;;;;;;4994551;28;20069;-68
2022/10/26 07:53:35;;;;;;;4.07;2.63;;;14.60;85.40;;;;;;4994825;28;20045;-68
2022/10/26 07:56:00;;;;;;;5.13;3.20;;;14.60;85.20;;;;;;4994148;28;20108;-69
2022/10/26 07:58:27;;;;;;;4.53;2.50;;;14.60;85.00;;;;;;4994403;28;20417;-67
2022/10/26 08:00:52;;;;;;;7.72;3.10;;;14.70;85.00;;;;;;4994158;28;20057;-69
2022/10/26 08:03:19;;;;;;;4.45;3.08;;;14.70;84.90;;;;;;4994305;28;20049;-68
2022/10/26 08:05:46;;;;;;;5.57;3.05;;;14.80;84.80;;;;;;4994262;28;20027;-68
2022/10/26 08:08:12;;;;;;;5.03;2.92;;;14.80;84.70;;;;;;4994045;28;20052;-68
2022/10/26 08:10:42;;;;;;;6.50;3.00;;;14.90;84.60;;;;;;4994043;28;20097;-68
2022/10/26 08:13:08;;;;;;;4.97;3.10;;;14.90;84.50;;;;;;4992761;28;20026;-68
2022/10/26 08:15:34;;;;;;;5.80;3.50;;;14.90;84.40;;;;;;4994065;28;20018;-68
2022/10/26 08:17:59;;;;;;;4.50;2.70;;;15.00;84.30;;;;;;4993935;28;20601;-68
2022/10/26 08:20:25;;;;;;;5.53;3.20;;;15.00;84.20;;;;;;4994327;28;20422;-68
2022/10/26 08:22:51;;;;;;;5.03;2.40;;;15.10;84.10;;;;;;4993737;28;20110;-67
2022/10/26 08:25:17;;;;;;;6.15;3.10;;;15.20;84.00;;;;;;4993809;28;20473;-67
2022/10/26 08:27:43;;;;;;;6.28;3.30;;;15.20;83.70;;;;;;4993925;28;20504;-68
2022/10/26 08:30:09;;;;;;;4.40;2.50;;;15.30;83.40;;;;;;4993835;28;20026;-68
2022/10/26 08:32:34;;;;;;;3.63;2.30;;;15.30;83.30;;;;;;4992215;28;20050;-68
2022/10/26 08:35:00;;;;;;;6.25;2.40;;;15.40;83.20;;;;;;4993634;28;20104;-68
2022/10/26 08:37:26;;;;;;;6.25;3.20;;;15.50;83.10;;;;;;4993563;28;20054;-69
2022/10/26 08:39:51;;;;;;;4.93;2.60;;;15.50;82.80;;;;;;4993332;28;20023;-68
2022/10/26 08:42:30;;;;;;;4.50;2.67;;;15.60;82.60;;;;;;4993436;28;20512;-69
2022/10/26 08:45:02;;;;;;;4.70;3.30;;;15.70;82.50;;;;;;4993344;28;20033;-68
2022/10/26 08:47:36;;;;;;;4.57;2.60;;;15.70;82.30;;;;;;4993585;28;20022;-68
2022/10/26 08:50:21;;;;;;;7.93;2.90;;;15.80;82.30;;;;;;4991622;28;20044;-68
2022/10/26 08:52:54;;;;;;;7.10;2.85;;;15.80;82.10;;;;;;4993272;28;20030;-67
2022/10/26 08:55:25;;;;;;;3.83;2.10;;;15.90;81.90;;;;;;4993066;28;20154;-68
2022/10/26 08:57:52;;;;;;;3.33;2.30;;;16.00;82.00;;;;;;4991967;28;20076;-69
2022/10/26 09:00:22;;;;;;;4.60;2.50;;;16.00;81.90;;;;;;4993049;28;20057;-67
2022/10/26 09:02:49;;;;;;;6.30;2.83;;;16.10;81.80;;;;;;4992207;28;20033;-67
2022/10/26 09:05:20;;;;;;;4.97;2.50;;;16.20;81.60;;;;;;5008119;28;20504;-67
2022/10/26 09:08:09;;;;;;;3.67;2.20;;;16.30;81.50;;;;;;4993116;28;20030;-66
2022/10/26 09:11:03;;;;;;;4.78;2.53;;;16.30;81.20;;;;;;4992772;28;20097;-68
2022/10/26 09:13:40;;;;;;;4.75;1.90;;;16.50;81.20;;;;;;4993047;28;20101;-68
2022/10/26 09:16:27;;;;;;;4.82;2.67;;;16.60;81.00;;;;;;4992559;28;20030;-67
2022/10/26 09:19:21;;;;;;;3.47;2.30;;;16.70;80.70;;;;;;4993019;28;20030;-68
2022/10/26 09:22:02;;;;;;;5.85;2.45;;;16.80;80.30;;;;;;4992775;28;20029;-68
2022/10/26 09:24:33;;;;;;;3.80;1.80;;;16.90;80.10;;;;;;4992838;28;20034;-68
2022/10/26 09:27:27;;;;;;;3.13;1.98;;;16.90;79.90;;;;;;4991501;28;20064;-68
2022/10/26 09:29:56;;;;;;;2.47;1.80;;;17.00;79.80;;;;;;4992641;28;20084;-68
2022/10/26 09:32:41;;;;;;;6.03;2.75;;;17.10;79.60;;;;;;4993119;28;20060;-69
2022/10/26 09:35:32;;;;;;;4.90;2.38;;;17.20;79.20;;;;;;4993383;28;20381;-69
2022/10/26 09:38:21;;;;;;;6.10;2.20;;;17.20;79.00;;;;;;4991512;28;20084;-65
2022/10/26 09:41:18;;;;;;;3.80;2.00;;;17.30;78.70;;;;;;4996996;28;20054;-67
2022/10/26 09:43:53;;;;;;;3.47;1.98;;;17.40;78.60;;;;;;4990758;28;20034;-67
2022/10/26 09:46:30;;;;;;;5.38;2.90;;;17.40;78.50;;;;;;4992091;28;20034;-67
2022/10/26 09:49:00;;;;;;;4.15;2.42;;;17.40;77.90;;;;;;4992008;28;20023;-67
2022/10/26 09:51:26;;;;;;;4.07;2.45;;;17.50;78.00;;;;;;4992091;28;20026;-67
2022/10/26 09:53:55;;;;;;;5.45;2.88;;;17.50;77.90;;;;;;4991908;28;20087;-67
2022/10/26 09:56:21;;;;;;;3.60;2.50;;;17.60;77.70;;;;;;4991513;28;20105;-67
2022/10/26 09:59:00;;;;;;;3.90;2.40;;;17.70;77.60;;;;;;4991848;28;20439;-67
2022/10/26 10:01:31;;;;;;;3.85;2.17;;;17.80;77.60;;;;;;4992227;28;20029;-68
2022/10/26 10:04:11;;;;;;;4.30;2.70;;;17.90;77.50;;;;;;4991824;28;20085;-67
2022/10/26 10:06:41;;;;;;;5.28;3.00;;;18.00;77.20;;;;;;4992352;28;20440;-66
2022/10/26 10:09:21;;;;;;;4.75;3.25;;;18.00;76.90;;;;;;4991796;28;20029;-67
2022/10/26 10:11:55;;;;;;;5.85;3.25;;;18.10;76.60;;;;;;4992781;28;20104;-67
2022/10/26 10:14:27;;;;;;;5.38;2.70;;;18.10;77.00;;;;;;4992645;28;20393;-68
2022/10/26 10:17:01;;;;;;;5.40;2.38;;;18.10;76.50;;;;;;4991936;28;20034;-67
2022/10/26 10:19:28;;;;;;;5.18;3.40;;;18.20;76.60;;;;;;4992516;28;20081;-68
2022/10/26 10:22:14;;;;;;;3.50;2.47;;;18.20;76.60;;;;;;4992731;28;20053;-66
2022/10/26 10:24:41;;;;;;;5.70;2.80;;;18.30;76.70;;;;;;4991926;28;20035;-68
2022/10/26 10:27:16;;;;;;;3.70;2.33;;;18.30;76.40;;;;;;4993276;28;20030;-68
2022/10/26 10:29:44;;;;;;;6.53;2.80;;;18.40;76.60;;;;;;4992505;28;20034;-68
2022/10/26 10:32:30;;;;;;;3.58;2.30;;;18.40;76.40;;;;;;4992880;28;20030;-68
2022/10/26 10:34:58;;;;;;;5.07;2.70;;;18.50;76.40;;;;;;4991010;28;20042;-66
2022/10/26 10:37:43;;;;;;;4.57;3.03;;;18.60;76.40;;;;;;4992704;28;20161;-68
2022/10/26 10:40:20;;;;;;;5.28;3.25;;;18.60;76.00;;;;;;4992286;28;20023;-67
2022/10/26 10:42:48;;;;;;;6.43;3.20;;;18.60;75.70;;;;;;4992615;28;20030;-68
2022/10/26 10:45:28;;;;;;;4.93;2.35;;;18.60;75.60;;;;;;4992673;28;20042;-67
2022/10/26 10:48:00;;;;;;;5.10;2.90;;;18.60;75.60;;;;;;4992661;28;20022;-67
2022/10/26 10:50:28;;;;;;;4.68;2.05;;;18.70;75.60;;;;;;4992728;28;20042;-68
2022/10/26 10:53:18;;;;;;;5.85;2.70;;;18.80;75.80;;;;;;4994897;28;20022;-67
2022/10/26 10:55:56;;;;;;;7.68;2.95;;;18.90;75.70;;;;;;4996241;28;20444;-67
2022/10/26 10:59:02;;;;;;;6.35;2.90;;;19.00;75.30;;;;;;4997023;28;20424;-68
2022/10/26 11:01:35;;;;;;;4.18;2.72;;;19.00;75.20;;;;;;4994615;28;20396;-67
2022/10/26 11:04:32;;;;;;;5.47;3.20;;;19.00;75.30;;;;;;4991193;28;20061;-67
2022/10/26 11:07:02;;;;;;;6.57;3.28;;;19.00;75.10;;;;;;4990997;28;20027;-67
2022/10/26 11:09:32;;;;;;;5.85;2.70;;;19.00;74.90;;;;;;4993849;28;20029;-66
2022/10/26 11:12:22;;;;;;;5.53;2.83;;;19.00;75.20;;;;;;4995140;28;20026;-67
2022/10/26 11:15:13;;;;;;;4.63;1.90;;;19.10;75.30;;;;;;4994325;28;20489;-66
2022/10/26 11:17:54;;;;;;;5.47;2.42;;;19.20;75.30;;;;;;4994666;28;20038;-67
2022/10/26 11:20:24;;;;;;;6.47;2.55;;;19.20;75.30;;;;;;4995687;28;20026;-67
2022/10/26 11:22:52;;;;;;;4.25;2.35;;;19.20;75.20;;;;;;4994807;28;20034;-66
2022/10/26 11:25:25;;;;;;;4.38;2.33;;;19.30;75.30;;;;;;4994686;28;20030;-67
2022/10/26 11:28:00;;;;;;;3.70;2.08;;;19.30;75.10;;;;;;4994438;28;20073;-68
2022/10/26 11:30:28;;;;;;;4.78;2.20;;;19.40;75.10;;;;;;4994718;28;20367;-69
2022/10/26 11:33:09;;;;;;;7.88;2.45;;;19.50;75.10;;;;;;4993313;28;20184;-68
2022/10/26 11:35:53;;;;;;;4.68;2.33;;;19.60;75.10;;;;;;4994661;28;20072;-67
2022/10/26 11:38:36;;;;;;;4.50;2.47;;;19.70;74.80;;;;;;4994190;28;20019;-67
2022/10/26 11:41:02;;;;;;;4.80;2.60;;;19.80;74.40;;;;;;4993741;28;20018;-67
2022/10/26 11:43:37;;;;;;;5.32;2.45;;;20.70;73.20;;;;;;4994641;28;20481;-67
2022/10/26 11:46:08;;;;;;;5.47;2.15;;;20.60;72.00;;;;;;4994568;28;20524;-68
2022/10/26 11:48:46;;;;;;;6.32;2.58;;;20.30;72.60;;;;;;4994460;28;20045;-67
2022/10/26 11:51:28;;;;;;;5.68;2.47;;;20.10;73.40;;;;;;4994071;28;20027;-67
2022/10/26 11:54:00;;;;;;;4.78;2.28;;;20.00;73.30;;;;;;4995157;28;20030;-67
2022/10/26 11:56:30;;;;;;;;;;;19.80;73.70;;;;;;4993719;28;20066;-67
2022/10/26 11:58:58;;;;;;;5.28;2.30;;;19.70;74.00;;;;;;4994377;28;19912;-68
2022/10/26 12:01:24;;;;;;;3.30;2.00;;;19.60;74.40;;;;;;4994195;28;20030;-68
2022/10/26 12:03:53;;;;;;;4.30;2.03;;;19.50;74.60;;;;;;4994060;28;20045;-68
2022/10/26 12:06:24;;;;;;;3.17;2.00;;;19.50;74.80;;;;;;4993737;28;20497;-67
2022/10/26 12:09:18;;;;;;;4.93;1.80;;;19.50;74.90;;;;;;4994196;28;20026;-67
2022/10/26 12:12:13;;;;;;;2.58;1.60;;;19.50;75.00;;;;;;4993811;28;20023;-67
2022/10/26 12:14:42;;;;;;;2.55;1.70;;;19.60;75.20;;;;;;4997763;28;20050;-67
2022/10/26 12:17:27;;;;;;;2.92;2.13;;;19.70;75.20;;;;;;4992309;28;20030;-67
2022/10/26 12:20:28;;;;;;;3.72;2.20;;;19.80;75.00;;;;;;4993485;28;20023;-68
2022/10/26 12:22:54;;;;;;;9.90;2.80;;;20.00;74.70;;;;;;4995669;28;20393;-68
2022/10/26 12:25:21;;;;;;;3.45;2.15;;;20.10;74.10;;;;;;4992354;28;20026;-67
2022/10/26 12:27:46;;;;;;;2.83;2.00;;;20.10;74.10;;;;;;4993504;28;20516;-67
2022/10/26 12:30:26;;;;;;;4.18;2.40;;;20.20;74.10;;;;;;4993823;28;20117;-67
2022/10/26 12:33:00;;;;;;;5.72;1.85;;;20.30;73.90;;;;;;4993647;28;20026;-67
2022/10/26 12:35:42;;;;;;;6.43;2.55;;;20.40;73.70;;;;;;4993826;28;20014;-66
2022/10/26 12:38:22;;;;;;;4.53;2.25;;;20.50;73.40;;;;;;4992504;28;20018;-67
2022/10/26 12:41:06;;;;;;;4.97;2.10;;;20.60;73.10;;;;;;4994104;28;20022;-67
2022/10/26 12:43:40;;;;;;;3.63;1.95;;;20.80;72.70;;;;;;4992097;28;20484;-68
2022/10/26 12:46:11;;;;;;;4.97;2.38;;;21.00;72.30;;;;;;4992378;28;20065;-67
2022/10/26 12:48:50;;;;;;;5.25;2.70;;;21.20;71.90;;;;;;4993130;28;20034;-68
2022/10/26 12:51:21;;;;;;;3.88;2.20;;;21.20;71.40;;;;;;4997068;28;20639;-68
2022/10/26 12:54:14;;;;;;;3.35;2.00;;;21.30;71.00;;;;;;5012625;28;20018;-67
2022/10/26 12:56:56;;;;;;;5.13;2.40;;;21.40;70.80;;;;;;5012532;28;20080;-67
2022/10/26 12:59:30;;;;;;;7.32;2.90;;;21.60;70.30;;;;;;5011239;28;20076;-68
2022/10/26 13:02:20;;;;;;;4.18;2.15;;;21.50;69.80;;;;;;5012698;28;20052;-68
2022/10/26 13:05:28;;;;;;;4.72;1.80;;;21.60;69.80;;;;;;5012650;28;20487;-67
2022/10/26 13:08:01;;;;;;;3.65;2.30;;;21.70;69.80;;;;;;5011008;28;20026;-67
2022/10/26 13:10:27;;;;;;;3.40;1.92;;;21.70;69.80;;;;;;5011049;28;20045;-67
2022/10/26 13:12:56;;;;;;;4.63;2.20;;;21.70;69.70;;;;;;5012077;28;20079;-68